sensor_id;sensor_type;location;lat;lon;timestamp;P1;durP1;ratioP1;P2;durP2;ratioP2
25653;SDS011;13511;48.622;9.230;2023-10-13T00:01:22;7.28;;;6.57;;
25653;SDS011;13511;48.622;9.230;2023-10-13T00:03:48;8.10;;;6.30;;
25653;SDS011;13511;48.622;9.230;2023-10-13T00:06:14;8.80;;;6.55;;
25653;SDS011;13511;48.622;9.230;2023-10-13T00:08:40;7.55;;;6.43;;
25653;SDS011;13511;48.622;9.230;2023-10-13T00:11:10;11.85;;;7.03;;
25653;SDS011;13511;48.622;9.230;2023-10-13T00:13:37;7.50;;;6.68;;
25653;SDS011;13511;48.622;9.230;2023-10-13T00:16:15;9.38;;;6.32;;
25653;SDS011;13511;48.622;9.230;2023-10-13T00:18:43;8.90;;;6.35;;
25653;SDS011;13511;48.622;9.230;2023-10-13T00:21:09;8.32;;;6.63;;
25653;SDS011;13511;48.622;9.230;2023-10-13T00:23:41;11.18;;;7.13;;
25653;SDS011;13511;48.622;9.230;2023-10-13T00:26:23;9.25;;;6.57;;
25653;SDS011;13511;48.622;9.230;2023-10-13T00:28:56;10.98;;;6.97;;
25653;SDS011;13511;48.622;9.230;2023-10-13T00:31:32;9.48;;;7.07;;
25653;SDS011;13511;48.622;9.230;2023-10-13T00:34:01;7.75;;;6.07;;
25653;SDS011;13511;48.622;9.230;2023-10-13T00:36:37;7.93;;;6.88;;
25653;SDS011;13511;48.622;9.230;2023-10-13T00:39:27;12.93;;;6.60;;
25653;SDS011;13511;48.622;9.230;2023-10-13T00:41:53;8.10;;;6.13;;
25653;SDS011;13511;48.622;9.230;2023-10-13T00:44:31;9.65;;;6.40;;
25653;SDS011;13511;48.622;9.230;2023-10-13T00:47:08;9.10;;;6.43;;
25653;SDS011;13511;48.622;9.230;2023-10-13T00:49:35;10.68;;;5.95;;
25653;SDS011;13511;48.622;9.230;2023-10-13T00:52:07;9.55;;;6.70;;
25653;SDS011;13511;48.622;9.230;2023-10-13T00:54:35;10.05;;;6.15;;
25653;SDS011;13511;48.622;9.230;2023-10-13T00:57:02;10.65;;;6.10;;
25653;SDS011;13511;48.622;9.230;2023-10-13T00:59:49;9.70;;;6.03;;
25653;SDS011;13511;48.622;9.230;2023-10-13T01:02:16;11.55;;;6.88;;
25653;SDS011;13511;48.622;9.230;2023-10-13T01:05:00;11.05;;;6.32;;
25653;SDS011;13511;48.622;9.230;2023-10-13T01:07:27;6.97;;;5.65;;
25653;SDS011;13511;48.622;9.230;2023-10-13T01:09:53;8.23;;;5.82;;
25653;SDS011;13511;48.622;9.230;2023-10-13T01:12:20;5.97;;;5.47;;
25653;SDS011;13511;48.622;9.230;2023-10-13T01:14:49;13.13;;;5.55;;
25653;SDS011;13511;48.622;9.230;2023-10-13T01:17:15;11.88;;;6.82;;
25653;SDS011;13511;48.622;9.230;2023-10-13T01:19:41;7.72;;;5.90;;
25653;SDS011;13511;48.622;9.230;2023-10-13T01:22:07;8.43;;;6.25;;
25653;SDS011;13511;48.622;9.230;2023-10-13T01:24:33;8.93;;;6.40;;
25653;SDS011;13511;48.622;9.230;2023-10-13T01:27:03;7.05;;;6.28;;
25653;SDS011;13511;48.622;9.230;2023-10-13T01:29:40;6.43;;;5.75;;
25653;SDS011;13511;48.622;9.230;2023-10-13T01:32:06;9.00;;;6.63;;
25653;SDS011;13511;48.622;9.230;2023-10-13T01:34:35;10.65;;;6.28;;
25653;SDS011;13511;48.622;9.230;2023-10-13T01:37:02;11.80;;;7.15;;
25653;SDS011;13511;48.622;9.230;2023-10-13T01:39:31;9.50;;;6.15;;
25653;SDS011;13511;48.622;9.230;2023-10-13T01:41:57;7.00;;;6.20;;
25653;SDS011;13511;48.622;9.230;2023-10-13T01:44:23;11.10;;;6.63;;
25653;SDS011;13511;48.622;9.230;2023-10-13T01:46:51;6.47;;;5.88;;
25653;SDS011;13511;48.622;9.230;2023-10-13T01:49:17;8.98;;;6.55;;
25653;SDS011;13511;48.622;9.230;2023-10-13T01:51:44;7.70;;;6.28;;
25653;SDS011;13511;48.622;9.230;2023-10-13T01:54:13;12.27;;;6.68;;
25653;SDS011;13511;48.622;9.230;2023-10-13T01:56:40;8.70;;;6.65;;
25653;SDS011;13511;48.622;9.230;2023-10-13T01:59:12;6.88;;;6.18;;
25653;SDS011;13511;48.622;9.230;2023-10-13T02:01:39;10.63;;;6.28;;
25653;SDS011;13511;48.622;9.230;2023-10-13T02:04:07;6.38;;;5.78;;
25653;SDS011;13511;48.622;9.230;2023-10-13T02:06:35;8.63;;;6.57;;
25653;SDS011;13511;48.622;9.230;2023-10-13T02:09:08;9.60;;;6.05;;
25653;SDS011;13511;48.622;9.230;2023-10-13T02:11:51;7.22;;;6.10;;
25653;SDS011;13511;48.622;9.230;2023-10-13T02:14:23;12.77;;;7.15;;
25653;SDS011;13511;48.622;9.230;2023-10-13T02:16:50;7.10;;;6.43;;
25653;SDS011;13511;48.622;9.230;2023-10-13T02:19:20;8.30;;;5.97;;
25653;SDS011;13511;48.622;9.230;2023-10-13T02:21:47;13.10;;;6.20;;
25653;SDS011;13511;48.622;9.230;2023-10-13T02:24:23;7.63;;;6.07;;
25653;SDS011;13511;48.622;9.230;2023-10-13T02:29:20;9.75;;;5.82;;
25653;SDS011;13511;48.622;9.230;2023-10-13T02:31:46;7.10;;;5.93;;
25653;SDS011;13511;48.622;9.230;2023-10-13T02:34:19;10.35;;;5.75;;
25653;SDS011;13511;48.622;9.230;2023-10-13T02:36:47;10.98;;;5.90;;
25653;SDS011;13511;48.622;9.230;2023-10-13T02:39:16;11.20;;;6.22;;
25653;SDS011;13511;48.622;9.230;2023-10-13T02:41:49;7.53;;;6.82;;
25653;SDS011;13511;48.622;9.230;2023-10-13T02:44:15;9.80;;;6.63;;
25653;SDS011;13511;48.622;9.230;2023-10-13T02:47:07;10.20;;;6.18;;
25653;SDS011;13511;48.622;9.230;2023-10-13T02:49:38;7.95;;;6.45;;
25653;SDS011;13511;48.622;9.230;2023-10-13T02:52:08;8.07;;;5.57;;
25653;SDS011;13511;48.622;9.230;2023-10-13T02:54:34;6.40;;;5.68;;
25653;SDS011;13511;48.622;9.230;2023-10-13T02:57:04;9.98;;;6.18;;
25653;SDS011;13511;48.622;9.230;2023-10-13T02:59:31;8.32;;;6.15;;
25653;SDS011;13511;48.622;9.230;2023-10-13T03:02:11;11.73;;;6.53;;
25653;SDS011;13511;48.622;9.230;2023-10-13T03:04:57;10.65;;;6.90;;
25653;SDS011;13511;48.622;9.230;2023-10-13T03:07:33;8.13;;;6.00;;
25653;SDS011;13511;48.622;9.230;2023-10-13T03:10:01;9.38;;;5.63;;
25653;SDS011;13511;48.622;9.230;2023-10-13T03:12:35;7.15;;;6.40;;
25653;SDS011;13511;48.622;9.230;2023-10-13T03:15:01;19.67;;;6.63;;
25653;SDS011;13511;48.622;9.230;2023-10-13T03:17:44;10.27;;;6.57;;
25653;SDS011;13511;48.622;9.230;2023-10-13T03:20:11;7.00;;;6.43;;
25653;SDS011;13511;48.622;9.230;2023-10-13T03:22:47;13.40;;;6.78;;
25653;SDS011;13511;48.622;9.230;2023-10-13T03:25:17;7.82;;;6.25;;
25653;SDS011;13511;48.622;9.230;2023-10-13T03:28:06;14.02;;;7.53;;
25653;SDS011;13511;48.622;9.230;2023-10-13T03:30:35;10.00;;;7.25;;
25653;SDS011;13511;48.622;9.230;2023-10-13T03:33:04;7.88;;;6.05;;
25653;SDS011;13511;48.622;9.230;2023-10-13T03:35:53;9.35;;;6.13;;
25653;SDS011;13511;48.622;9.230;2023-10-13T03:38:19;9.40;;;6.82;;
25653;SDS011;13511;48.622;9.230;2023-10-13T03:40:51;11.40;;;6.55;;
25653;SDS011;13511;48.622;9.230;2023-10-13T03:43:37;8.50;;;6.80;;
25653;SDS011;13511;48.622;9.230;2023-10-13T03:46:32;7.22;;;6.57;;
25653;SDS011;13511;48.622;9.230;2023-10-13T03:48:58;7.15;;;6.35;;
25653;SDS011;13511;48.622;9.230;2023-10-13T03:51:27;9.57;;;6.80;;
25653;SDS011;13511;48.622;9.230;2023-10-13T03:53:56;10.93;;;6.90;;
25653;SDS011;13511;48.622;9.230;2023-10-13T03:56:26;9.70;;;6.90;;
25653;SDS011;13511;48.622;9.230;2023-10-13T03:59:04;9.65;;;7.32;;
25653;SDS011;13511;48.622;9.230;2023-10-13T04:01:38;11.02;;;6.80;;
25653;SDS011;13511;48.622;9.230;2023-10-13T04:06:59;11.63;;;6.07;;
25653;SDS011;13511;48.622;9.230;2023-10-13T04:09:48;6.05;;;5.43;;
25653;SDS011;13511;48.622;9.230;2023-10-13T04:12:15;10.68;;;5.93;;
25653;SDS011;13511;48.622;9.230;2023-10-13T04:15:03;9.25;;;5.75;;
25653;SDS011;13511;48.622;9.230;2023-10-13T04:17:30;9.38;;;6.18;;
25653;SDS011;13511;48.622;9.230;2023-10-13T04:20:05;9.27;;;6.38;;
25653;SDS011;13511;48.622;9.230;2023-10-13T04:22:32;13.57;;;7.03;;
25653;SDS011;13511;48.622;9.230;2023-10-13T04:25:15;8.65;;;7.03;;
25653;SDS011;13511;48.622;9.230;2023-10-13T04:28:13;9.88;;;7.25;;
25653;SDS011;13511;48.622;9.230;2023-10-13T04:30:43;9.07;;;6.75;;
25653;SDS011;13511;48.622;9.230;2023-10-13T04:33:15;11.60;;;7.32;;
25653;SDS011;13511;48.622;9.230;2023-10-13T04:36:21;13.93;;;7.13;;
25653;SDS011;13511;48.622;9.230;2023-10-13T04:38:53;9.20;;;6.78;;
25653;SDS011;13511;48.622;9.230;2023-10-13T04:41:25;9.60;;;7.47;;
25653;SDS011;13511;48.622;9.230;2023-10-13T04:44:13;8.63;;;7.45;;
25653;SDS011;13511;48.622;9.230;2023-10-13T04:46:58;12.20;;;6.72;;
25653;SDS011;13511;48.622;9.230;2023-10-13T04:49:24;9.23;;;7.47;;
25653;SDS011;13511;48.622;9.230;2023-10-13T04:51:57;11.55;;;7.20;;
25653;SDS011;13511;48.622;9.230;2023-10-13T04:54:27;8.57;;;7.32;;
25653;SDS011;13511;48.622;9.230;2023-10-13T04:57:12;8.10;;;6.80;;
25653;SDS011;13511;48.622;9.230;2023-10-13T04:59:58;10.57;;;7.20;;
25653;SDS011;13511;48.622;9.230;2023-10-13T05:02:40;13.18;;;7.15;;
25653;SDS011;13511;48.622;9.230;2023-10-13T05:05:13;8.40;;;7.00;;
25653;SDS011;13511;48.622;9.230;2023-10-13T05:07:42;9.45;;;6.97;;
25653;SDS011;13511;48.622;9.230;2023-10-13T05:10:27;10.50;;;7.93;;
25653;SDS011;13511;48.622;9.230;2023-10-13T05:13:12;7.50;;;6.28;;
25653;SDS011;13511;48.622;9.230;2023-10-13T05:15:57;7.70;;;6.88;;
25653;SDS011;13511;48.622;9.230;2023-10-13T05:18:41;7.40;;;6.68;;
25653;SDS011;13511;48.622;9.230;2023-10-13T05:21:26;18.75;;;8.38;;
25653;SDS011;13511;48.622;9.230;2023-10-13T05:24:10;8.10;;;6.65;;
25653;SDS011;13511;48.622;9.230;2023-10-13T05:26:55;9.45;;;7.07;;
25653;SDS011;13511;48.622;9.230;2023-10-13T05:29:40;11.68;;;7.10;;
25653;SDS011;13511;48.622;9.230;2023-10-13T05:32:25;13.30;;;7.35;;
25653;SDS011;13511;48.622;9.230;2023-10-13T05:35:11;8.95;;;6.97;;
25653;SDS011;13511;48.622;9.230;2023-10-13T05:37:55;11.02;;;7.95;;
25653;SDS011;13511;48.622;9.230;2023-10-13T05:40:51;12.02;;;8.23;;
25653;SDS011;13511;48.622;9.230;2023-10-13T05:43:35;9.98;;;7.22;;
25653;SDS011;13511;48.622;9.230;2023-10-13T05:46:20;8.20;;;7.28;;
25653;SDS011;13511;48.622;9.230;2023-10-13T05:48:52;11.70;;;7.47;;
25653;SDS011;13511;48.622;9.230;2023-10-13T05:51:28;12.40;;;6.85;;
25653;SDS011;13511;48.622;9.230;2023-10-13T05:54:00;8.85;;;7.35;;
25653;SDS011;13511;48.622;9.230;2023-10-13T05:56:45;10.20;;;6.75;;
25653;SDS011;13511;48.622;9.230;2023-10-13T05:59:30;7.30;;;6.55;;
25653;SDS011;13511;48.622;9.230;2023-10-13T06:02:16;9.82;;;7.05;;
25653;SDS011;13511;48.622;9.230;2023-10-13T06:05:01;11.50;;;7.35;;
25653;SDS011;13511;48.622;9.230;2023-10-13T06:07:46;10.38;;;7.68;;
25653;SDS011;13511;48.622;9.230;2023-10-13T06:10:30;11.95;;;6.82;;
25653;SDS011;13511;48.622;9.230;2023-10-13T06:13:15;12.15;;;6.90;;
25653;SDS011;13511;48.622;9.230;2023-10-13T06:16:00;9.57;;;7.75;;
25653;SDS011;13511;48.622;9.230;2023-10-13T06:18:48;10.13;;;7.32;;
25653;SDS011;13511;48.622;9.230;2023-10-13T06:21:33;13.65;;;7.22;;
25653;SDS011;13511;48.622;9.230;2023-10-13T06:24:17;11.13;;;6.53;;
25653;SDS011;13511;48.622;9.230;2023-10-13T06:27:02;11.02;;;7.55;;
25653;SDS011;13511;48.622;9.230;2023-10-13T06:29:47;9.27;;;6.90;;
25653;SDS011;13511;48.622;9.230;2023-10-13T06:32:13;14.35;;;7.85;;
25653;SDS011;13511;48.622;9.230;2023-10-13T06:34:41;9.35;;;7.55;;
25653;SDS011;13511;48.622;9.230;2023-10-13T06:37:16;11.23;;;7.60;;
25653;SDS011;13511;48.622;9.230;2023-10-13T06:39:55;11.32;;;7.10;;
25653;SDS011;13511;48.622;9.230;2023-10-13T06:42:25;8.20;;;7.03;;
25653;SDS011;13511;48.622;9.230;2023-10-13T06:44:54;9.30;;;6.53;;
25653;SDS011;13511;48.622;9.230;2023-10-13T06:47:21;13.95;;;7.60;;
25653;SDS011;13511;48.622;9.230;2023-10-13T06:49:47;8.35;;;7.22;;
25653;SDS011;13511;48.622;9.230;2023-10-13T06:52:16;11.65;;;7.07;;
25653;SDS011;13511;48.622;9.230;2023-10-13T06:54:42;7.82;;;6.80;;
25653;SDS011;13511;48.622;9.230;2023-10-13T06:57:09;8.27;;;6.65;;
25653;SDS011;13511;48.622;9.230;2023-10-13T06:59:45;8.45;;;7.07;;
25653;SDS011;13511;48.622;9.230;2023-10-13T07:02:11;14.95;;;7.85;;
25653;SDS011;13511;48.622;9.230;2023-10-13T07:04:49;12.48;;;7.13;;
25653;SDS011;13511;48.622;9.230;2023-10-13T07:07:25;12.55;;;7.13;;
25653;SDS011;13511;48.622;9.230;2023-10-13T07:09:51;8.63;;;6.63;;
25653;SDS011;13511;48.622;9.230;2023-10-13T07:12:23;9.27;;;6.70;;
25653;SDS011;13511;48.622;9.230;2023-10-13T07:14:52;12.52;;;7.63;;
25653;SDS011;13511;48.622;9.230;2023-10-13T07:17:25;9.65;;;5.93;;
25653;SDS011;13511;48.622;9.230;2023-10-13T07:19:53;10.38;;;6.63;;
25653;SDS011;13511;48.622;9.230;2023-10-13T07:22:21;9.95;;;6.78;;
25653;SDS011;13511;48.622;9.230;2023-10-13T07:24:49;12.18;;;7.13;;
25653;SDS011;13511;48.622;9.230;2023-10-13T07:27:16;9.57;;;7.10;;
25653;SDS011;13511;48.622;9.230;2023-10-13T07:29:48;9.23;;;7.65;;
25653;SDS011;13511;48.622;9.230;2023-10-13T07:32:20;14.38;;;7.60;;
25653;SDS011;13511;48.622;9.230;2023-10-13T07:34:49;14.82;;;9.63;;
25653;SDS011;13511;48.622;9.230;2023-10-13T07:37:15;18.48;;;11.27;;
25653;SDS011;13511;48.622;9.230;2023-10-13T07:39:44;36.30;;;17.48;;
25653;SDS011;13511;48.622;9.230;2023-10-13T07:42:10;56.90;;;26.30;;
25653;SDS011;13511;48.622;9.230;2023-10-13T07:44:44;42.90;;;20.85;;
25653;SDS011;13511;48.622;9.230;2023-10-13T07:47:11;31.55;;;17.42;;
25653;SDS011;13511;48.622;9.230;2023-10-13T07:49:39;20.77;;;13.73;;
25653;SDS011;13511;48.622;9.230;2023-10-13T07:52:07;20.13;;;13.35;;
25653;SDS011;13511;48.622;9.230;2023-10-13T07:54:45;18.08;;;9.38;;
25653;SDS011;13511;48.622;9.230;2023-10-13T07:57:20;14.13;;;8.35;;
25653;SDS011;13511;48.622;9.230;2023-10-13T07:59:54;13.52;;;8.93;;
25653;SDS011;13511;48.622;9.230;2023-10-13T08:02:31;15.05;;;8.25;;
25653;SDS011;13511;48.622;9.230;2023-10-13T08:05:13;14.93;;;8.68;;
25653;SDS011;13511;48.622;9.230;2023-10-13T08:07:49;12.23;;;7.78;;
25653;SDS011;13511;48.622;9.230;2023-10-13T08:10:15;12.77;;;7.18;;
25653;SDS011;13511;48.622;9.230;2023-10-13T08:12:42;9.27;;;7.15;;
25653;SDS011;13511;48.622;9.230;2023-10-13T08:15:09;8.15;;;7.00;;
25653;SDS011;13511;48.622;9.230;2023-10-13T08:17:57;11.45;;;7.45;;
25653;SDS011;13511;48.622;9.230;2023-10-13T08:20:24;18.60;;;7.32;;
25653;SDS011;13511;48.622;9.230;2023-10-13T08:22:55;10.32;;;7.28;;
25653;SDS011;13511;48.622;9.230;2023-10-13T08:25:38;9.77;;;7.43;;
25653;SDS011;13511;48.622;9.230;2023-10-13T08:28:23;9.90;;;7.47;;
25653;SDS011;13511;48.622;9.230;2023-10-13T08:31:09;19.48;;;6.93;;
25653;SDS011;13511;48.622;9.230;2023-10-13T08:33:47;10.60;;;5.95;;
25653;SDS011;13511;48.622;9.230;2023-10-13T08:36:13;12.98;;;6.70;;
25653;SDS011;13511;48.622;9.230;2023-10-13T08:38:55;15.07;;;6.70;;
25653;SDS011;13511;48.622;9.230;2023-10-13T08:41:22;12.65;;;6.22;;
25653;SDS011;13511;48.622;9.230;2023-10-13T08:43:49;12.57;;;5.68;;
25653;SDS011;13511;48.622;9.230;2023-10-13T08:46:16;9.75;;;6.43;;
25653;SDS011;13511;48.622;9.230;2023-10-13T08:48:58;14.73;;;6.13;;
25653;SDS011;13511;48.622;9.230;2023-10-13T08:51:54;12.68;;;6.28;;
25653;SDS011;13511;48.622;9.230;2023-10-13T08:54:52;9.68;;;5.90;;
25653;SDS011;13511;48.622;9.230;2023-10-13T08:57:30;11.55;;;5.88;;
25653;SDS011;13511;48.622;9.230;2023-10-13T08:59:58;15.10;;;5.70;;
25653;SDS011;13511;48.622;9.230;2023-10-13T09:02:44;13.13;;;6.20;;
25653;SDS011;13511;48.622;9.230;2023-10-13T09:05:45;10.60;;;4.95;;
25653;SDS011;13511;48.622;9.230;2023-10-13T09:08:27;10.75;;;5.10;;
25653;SDS011;13511;48.622;9.230;2023-10-13T09:11:12;6.75;;;4.30;;
25653;SDS011;13511;48.622;9.230;2023-10-13T09:13:38;15.85;;;4.85;;
25653;SDS011;13511;48.622;9.230;2023-10-13T09:16:14;13.80;;;4.97;;
25653;SDS011;13511;48.622;9.230;2023-10-13T09:19:03;11.52;;;4.70;;
25653;SDS011;13511;48.622;9.230;2023-10-13T09:21:37;9.88;;;4.82;;
25653;SDS011;13511;48.622;9.230;2023-10-13T09:24:03;8.05;;;4.53;;
25653;SDS011;13511;48.622;9.230;2023-10-13T09:26:52;8.75;;;4.40;;
25653;SDS011;13511;48.622;9.230;2023-10-13T09:29:22;11.25;;;4.60;;
25653;SDS011;13511;48.622;9.230;2023-10-13T09:31:58;8.70;;;4.78;;
25653;SDS011;13511;48.622;9.230;2023-10-13T09:34:25;6.85;;;4.07;;
25653;SDS011;13511;48.622;9.230;2023-10-13T09:36:57;12.82;;;4.82;;
25653;SDS011;13511;48.622;9.230;2023-10-13T09:39:26;10.55;;;4.95;;
25653;SDS011;13511;48.622;9.230;2023-10-13T09:41:59;7.88;;;4.43;;
25653;SDS011;13511;48.622;9.230;2023-10-13T09:44:26;12.20;;;5.25;;
25653;SDS011;13511;48.622;9.230;2023-10-13T09:47:00;11.85;;;5.55;;
25653;SDS011;13511;48.622;9.230;2023-10-13T09:49:33;12.70;;;4.85;;
25653;SDS011;13511;48.622;9.230;2023-10-13T09:52:14;6.25;;;4.47;;
25653;SDS011;13511;48.622;9.230;2023-10-13T09:54:44;14.52;;;5.13;;
25653;SDS011;13511;48.622;9.230;2023-10-13T09:57:15;9.43;;;4.80;;
25653;SDS011;13511;48.622;9.230;2023-10-13T09:59:55;9.25;;;5.30;;
25653;SDS011;13511;48.622;9.230;2023-10-13T10:02:30;13.90;;;4.93;;
25653;SDS011;13511;48.622;9.230;2023-10-13T10:04:57;12.52;;;4.80;;
25653;SDS011;13511;48.622;9.230;2023-10-13T10:07:59;10.85;;;4.75;;
25653;SDS011;13511;48.622;9.230;2023-10-13T10:13:15;8.52;;;4.82;;
25653;SDS011;13511;48.622;9.230;2023-10-13T10:15:46;9.93;;;4.70;;
25653;SDS011;13511;48.622;9.230;2023-10-13T10:18:19;8.23;;;5.20;;
25653;SDS011;13511;48.622;9.230;2023-10-13T10:20:47;9.57;;;4.90;;
25653;SDS011;13511;48.622;9.230;2023-10-13T10:23:26;13.20;;;4.88;;
25653;SDS011;13511;48.622;9.230;2023-10-13T10:25:53;8.50;;;4.65;;
25653;SDS011;13511;48.622;9.230;2023-10-13T10:28:36;12.27;;;5.72;;
25653;SDS011;13511;48.622;9.230;2023-10-13T10:31:06;10.02;;;4.78;;
25653;SDS011;13511;48.622;9.230;2023-10-13T10:33:40;16.75;;;5.07;;
25653;SDS011;13511;48.622;9.230;2023-10-13T10:36:06;13.98;;;4.18;;
25653;SDS011;13511;48.622;9.230;2023-10-13T10:38:53;14.50;;;4.50;;
25653;SDS011;13511;48.622;9.230;2023-10-13T10:41:27;19.15;;;4.38;;
25653;SDS011;13511;48.622;9.230;2023-10-13T10:44:15;7.07;;;3.72;;
25653;SDS011;13511;48.622;9.230;2023-10-13T10:46:41;8.82;;;3.88;;
25653;SDS011;13511;48.622;9.230;2023-10-13T10:49:17;9.70;;;3.95;;
25653;SDS011;13511;48.622;9.230;2023-10-13T10:51:52;6.38;;;3.65;;
25653;SDS011;13511;48.622;9.230;2023-10-13T10:54:23;8.95;;;3.90;;
25653;SDS011;13511;48.622;9.230;2023-10-13T10:56:55;9.18;;;3.83;;
25653;SDS011;13511;48.622;9.230;2023-10-13T10:59:21;10.60;;;4.47;;
25653;SDS011;13511;48.622;9.230;2023-10-13T11:01:50;7.63;;;3.95;;
25653;SDS011;13511;48.622;9.230;2023-10-13T11:04:17;11.68;;;4.18;;
25653;SDS011;13511;48.622;9.230;2023-10-13T11:09:13;7.75;;;3.63;;
25653;SDS011;13511;48.622;9.230;2023-10-13T11:14:43;5.75;;;3.85;;
25653;SDS011;13511;48.622;9.230;2023-10-13T11:17:18;4.25;;;3.85;;
25653;SDS011;13511;48.622;9.230;2023-10-13T11:19:49;9.95;;;3.75;;
25653;SDS011;13511;48.622;9.230;2023-10-13T11:25:00;7.15;;;3.85;;
25653;SDS011;13511;48.622;9.230;2023-10-13T11:27:36;6.45;;;3.88;;
25653;SDS011;13511;48.622;9.230;2023-10-13T11:30:11;9.27;;;3.97;;
25653;SDS011;13511;48.622;9.230;2023-10-13T11:32:39;7.88;;;4.13;;
25653;SDS011;13511;48.622;9.230;2023-10-13T11:35:07;7.55;;;4.00;;
25653;SDS011;13511;48.622;9.230;2023-10-13T11:37:55;10.82;;;4.72;;
25653;SDS011;13511;48.622;9.230;2023-10-13T11:40:39;7.97;;;3.80;;
25653;SDS011;13511;48.622;9.230;2023-10-13T11:43:08;6.90;;;4.05;;
25653;SDS011;13511;48.622;9.230;2023-10-13T11:45:47;8.35;;;3.80;;
25653;SDS011;13511;48.622;9.230;2023-10-13T11:48:25;5.88;;;4.15;;
25653;SDS011;13511;48.622;9.230;2023-10-13T11:51:04;8.13;;;3.78;;
25653;SDS011;13511;48.622;9.230;2023-10-13T11:53:33;5.22;;;3.88;;
25653;SDS011;13511;48.622;9.230;2023-10-13T11:56:00;10.30;;;4.03;;
25653;SDS011;13511;48.622;9.230;2023-10-13T11:58:26;5.53;;;3.78;;
25653;SDS011;13511;48.622;9.230;2023-10-13T12:00:54;10.43;;;3.95;;
25653;SDS011;13511;48.622;9.230;2023-10-13T12:03:33;9.52;;;3.90;;
25653;SDS011;13511;48.622;9.230;2023-10-13T12:06:18;6.25;;;4.10;;
25653;SDS011;13511;48.622;9.230;2023-10-13T12:08:47;7.43;;;3.80;;
25653;SDS011;13511;48.622;9.230;2023-10-13T12:11:17;12.60;;;4.28;;
25653;SDS011;13511;48.622;9.230;2023-10-13T12:13:56;4.20;;;3.70;;
25653;SDS011;13511;48.622;9.230;2023-10-13T12:16:22;7.40;;;4.18;;
25653;SDS011;13511;48.622;9.230;2023-10-13T12:18:48;5.38;;;3.97;;
25653;SDS011;13511;48.622;9.230;2023-10-13T12:21:19;9.10;;;4.05;;
25653;SDS011;13511;48.622;9.230;2023-10-13T12:23:46;7.50;;;4.13;;
25653;SDS011;13511;48.622;9.230;2023-10-13T12:26:12;7.72;;;3.75;;
25653;SDS011;13511;48.622;9.230;2023-10-13T12:28:47;3.92;;;3.40;;
25653;SDS011;13511;48.622;9.230;2023-10-13T12:31:30;6.50;;;3.85;;
25653;SDS011;13511;48.622;9.230;2023-10-13T12:33:57;5.72;;;4.00;;
25653;SDS011;13511;48.622;9.230;2023-10-13T12:36:31;5.63;;;3.83;;
25653;SDS011;13511;48.622;9.230;2023-10-13T12:39:17;7.40;;;4.70;;
25653;SDS011;13511;48.622;9.230;2023-10-13T12:42:02;12.88;;;4.85;;
25653;SDS011;13511;48.622;9.230;2023-10-13T12:44:46;8.60;;;4.65;;
25653;SDS011;13511;48.622;9.230;2023-10-13T12:47:38;7.15;;;4.35;;
25653;SDS011;13511;48.622;9.230;2023-10-13T12:50:23;5.90;;;4.38;;
25653;SDS011;13511;48.622;9.230;2023-10-13T12:53:08;6.70;;;4.20;;
25653;SDS011;13511;48.622;9.230;2023-10-13T12:55:41;9.02;;;4.03;;
25653;SDS011;13511;48.622;9.230;2023-10-13T12:58:07;8.25;;;4.05;;
25653;SDS011;13511;48.622;9.230;2023-10-13T13:00:33;6.72;;;3.97;;
25653;SDS011;13511;48.622;9.230;2023-10-13T13:02:59;6.90;;;4.15;;
25653;SDS011;13511;48.622;9.230;2023-10-13T13:05:25;7.55;;;4.45;;
25653;SDS011;13511;48.622;9.230;2023-10-13T13:07:54;9.05;;;4.32;;
25653;SDS011;13511;48.622;9.230;2023-10-13T13:10:20;6.47;;;3.65;;
25653;SDS011;13511;48.622;9.230;2023-10-13T13:12:59;5.38;;;3.70;;
25653;SDS011;13511;48.622;9.230;2023-10-13T13:15:25;7.75;;;4.03;;
25653;SDS011;13511;48.622;9.230;2023-10-13T13:17:51;9.02;;;4.20;;
25653;SDS011;13511;48.622;9.230;2023-10-13T13:20:17;9.68;;;3.92;;
25653;SDS011;13511;48.622;9.230;2023-10-13T13:22:54;15.15;;;4.47;;
25653;SDS011;13511;48.622;9.230;2023-10-13T13:25:20;7.38;;;4.07;;
25653;SDS011;13511;48.622;9.230;2023-10-13T13:30:17;7.65;;;3.85;;
25653;SDS011;13511;48.622;9.230;2023-10-13T13:32:46;12.00;;;4.63;;
25653;SDS011;13511;48.622;9.230;2023-10-13T13:35:13;6.18;;;3.90;;
25653;SDS011;13511;48.622;9.230;2023-10-13T13:37:40;9.25;;;4.82;;
25653;SDS011;13511;48.622;9.230;2023-10-13T13:40:09;6.85;;;4.00;;
25653;SDS011;13511;48.622;9.230;2023-10-13T13:42:42;6.30;;;3.28;;
25653;SDS011;13511;48.622;9.230;2023-10-13T13:45:15;10.30;;;4.38;;
25653;SDS011;13511;48.622;9.230;2023-10-13T13:47:50;9.27;;;4.22;;
25653;SDS011;13511;48.622;9.230;2023-10-13T13:50:19;8.52;;;3.88;;
25653;SDS011;13511;48.622;9.230;2023-10-13T13:52:49;7.78;;;3.65;;
25653;SDS011;13511;48.622;9.230;2023-10-13T13:55:17;6.68;;;3.70;;
25653;SDS011;13511;48.622;9.230;2023-10-13T13:57:43;7.32;;;3.53;;
25653;SDS011;13511;48.622;9.230;2023-10-13T14:00:12;4.47;;;3.95;;
25653;SDS011;13511;48.622;9.230;2023-10-13T14:02:42;9.65;;;3.67;;
25653;SDS011;13511;48.622;9.230;2023-10-13T14:07:41;8.40;;;4.10;;
25653;SDS011;13511;48.622;9.230;2023-10-13T14:10:07;6.47;;;3.80;;
25653;SDS011;13511;48.622;9.230;2023-10-13T14:12:41;8.05;;;3.40;;
25653;SDS011;13511;48.622;9.230;2023-10-13T14:15:10;4.95;;;3.85;;
25653;SDS011;13511;48.622;9.230;2023-10-13T14:17:48;4.82;;;3.42;;
25653;SDS011;13511;48.622;9.230;2023-10-13T14:20:15;6.78;;;3.65;;
25653;SDS011;13511;48.622;9.230;2023-10-13T14:22:43;10.85;;;3.72;;
25653;SDS011;13511;48.622;9.230;2023-10-13T14:25:12;6.72;;;3.72;;
25653;SDS011;13511;48.622;9.230;2023-10-13T14:27:40;5.47;;;3.30;;
25653;SDS011;13511;48.622;9.230;2023-10-13T14:30:06;4.47;;;3.47;;
25653;SDS011;13511;48.622;9.230;2023-10-13T14:32:32;4.63;;;3.47;;
25653;SDS011;13511;48.622;9.230;2023-10-13T14:35:05;4.15;;;3.75;;
25653;SDS011;13511;48.622;9.230;2023-10-13T14:37:39;11.82;;;3.30;;
25653;SDS011;13511;48.622;9.230;2023-10-13T14:40:05;7.82;;;3.60;;
25653;SDS011;13511;48.622;9.230;2023-10-13T14:42:37;5.63;;;3.70;;
25653;SDS011;13511;48.622;9.230;2023-10-13T14:45:05;5.03;;;3.45;;
25653;SDS011;13511;48.622;9.230;2023-10-13T14:47:39;6.30;;;2.97;;
25653;SDS011;13511;48.622;9.230;2023-10-13T14:50:05;3.50;;;3.20;;
25653;SDS011;13511;48.622;9.230;2023-10-13T14:52:32;8.38;;;3.17;;
25653;SDS011;13511;48.622;9.230;2023-10-13T14:54:58;8.32;;;3.08;;
25653;SDS011;13511;48.622;9.230;2023-10-13T14:57:24;3.70;;;2.90;;
25653;SDS011;13511;48.622;9.230;2023-10-13T14:59:54;5.15;;;3.03;;
25653;SDS011;13511;48.622;9.230;2023-10-13T15:02:20;8.07;;;3.30;;
25653;SDS011;13511;48.622;9.230;2023-10-13T15:04:47;3.67;;;2.90;;
25653;SDS011;13511;48.622;9.230;2023-10-13T15:07:13;3.67;;;3.00;;
25653;SDS011;13511;48.622;9.230;2023-10-13T15:09:40;4.80;;;3.08;;
25653;SDS011;13511;48.622;9.230;2023-10-13T15:12:08;8.18;;;3.08;;
25653;SDS011;13511;48.622;9.230;2023-10-13T15:14:35;5.38;;;3.10;;
25653;SDS011;13511;48.622;9.230;2023-10-13T15:17:02;11.68;;;3.97;;
25653;SDS011;13511;48.622;9.230;2023-10-13T15:19:31;4.00;;;3.05;;
25653;SDS011;13511;48.622;9.230;2023-10-13T15:22:01;4.65;;;2.80;;
25653;SDS011;13511;48.622;9.230;2023-10-13T15:24:27;3.72;;;2.65;;
25653;SDS011;13511;48.622;9.230;2023-10-13T15:26:53;5.00;;;3.08;;
25653;SDS011;13511;48.622;9.230;2023-10-13T15:29:26;7.82;;;2.80;;
25653;SDS011;13511;48.622;9.230;2023-10-13T15:32:00;4.45;;;2.72;;
25653;SDS011;13511;48.622;9.230;2023-10-13T15:34:29;7.72;;;3.53;;
25653;SDS011;13511;48.622;9.230;2023-10-13T15:36:56;2.65;;;2.45;;
25653;SDS011;13511;48.622;9.230;2023-10-13T15:39:22;3.30;;;2.88;;
25653;SDS011;13511;48.622;9.230;2023-10-13T15:41:52;4.25;;;2.83;;